Time;durP1;ratioP1;P1;durP2;ratioP2;P2;SDS_P1;SDS_P2;PMS_P1;PMS_P2;Temp;Humidity;BMP_temperature;BMP_pressure;BME280_temperature;BME280_humidity;BME280_pressure;Samples;Min_cycle;Max_cycle;Signal;HPM_P1;HPM_P2
2023/10/06 00:00:54;;;;;;;7.93;3.85;;;;;;;9.29;100.00;101756.72;691415;28;4389;-62
2023/10/06 00:01:14;;;;;;;6.93;3.83;;;;;;;9.31;100.00;101757.63;693490;28;1296;-63
2023/10/06 00:01:34;;;;;;;8.03;3.87;;;;;;;9.31;100.00;101755.91;693677;28;778;-62
2023/10/06 00:01:55;;;;;;;7.67;4.00;;;;;;;9.32;100.00;101751.56;691483;28;1705;-64
2023/10/06 00:02:28;;;;;;;8.47;4.00;;;;;;;9.31;100.00;101761.13;693167;28;884;-63
2023/10/06 00:02:51;;;;;;;8.48;4.18;;;;;;;9.32;100.00;101760.28;691981;28;1659;-63
2023/10/06 00:03:14;;;;;;;6.97;4.07;;;;;;;9.31;100.00;101749.81;692220;28;1006;-62
2023/10/06 00:03:37;;;;;;;7.53;4.10;;;;;;;9.32;100.00;101752.44;692740;28;1432;-62
2023/10/06 00:03:59;;;;;;;7.60;3.83;;;;;;;9.37;100.00;101747.28;691181;28;4405;-64
2023/10/06 00:04:22;;;;;;;8.15;4.47;;;;;;;9.36;100.00;101751.66;693282;28;766;-64
2023/10/06 00:04:42;;;;;;;6.90;3.95;;;;;;;9.35;100.00;101751.63;691443;28;2248;-62
2023/10/06 00:05:03;;;;;;;6.32;3.65;;;;;;;9.34;100.00;101745.50;693383;28;976;-62
2023/10/06 00:05:24;;;;;;;6.47;4.00;;;;;;;9.34;100.00;101747.25;693297;28;936;-66
2023/10/06 00:05:48;;;;;;;7.22;4.10;;;;;;;9.33;100.00;101754.22;691643;28;2941;-62
2023/10/06 00:06:12;;;;;;;7.72;4.00;;;;;;;9.33;100.00;101750.69;692790;28;991;-63
2023/10/06 00:06:38;;;;;;;7.38;4.10;;;;;;;9.34;100.00;101747.25;692865;28;1209;-61
2023/10/06 00:07:06;;;;;;;8.45;4.05;;;;;;;9.32;100.00;101748.97;690110;28;4379;-63
2023/10/06 00:07:26;;;;;;;7.68;3.88;;;;;;;9.31;100.00;101752.41;692262;28;1018;-63
2023/10/06 00:07:47;;;;;;;7.50;3.90;;;;;;;9.32;100.00;101748.97;690402;28;1827;-63
2023/10/06 00:08:10;;;;;;;6.27;4.07;;;;;;;9.32;100.00;101755.06;692426;28;985;-64
2023/10/06 00:08:35;;;;;;;7.60;4.07;;;;;;;9.30;100.00;101753.25;690037;28;1285;-63
2023/10/06 00:08:57;;;;;;;6.60;3.78;;;;;;;9.29;100.00;101754.09;691117;28;1522;-64
2023/10/06 00:09:28;;;;;;;7.70;3.70;;;;;;;9.28;100.00;101753.25;693399;28;871;-64
2023/10/06 00:09:48;;;;;;;7.70;4.10;;;;;;;9.29;100.00;101752.41;691986;28;4527;-63
2023/10/06 00:10:19;;;;;;;7.33;3.90;;;;;;;9.31;100.00;101752.41;693437;28;1294;-63
2023/10/06 00:10:46;;;;;;;7.65;3.88;;;;;;;9.29;100.00;101755.00;693202;28;868;-63
2023/10/06 00:11:15;;;;;;;7.22;3.95;;;;;;;9.31;100.00;101761.13;693595;28;896;-63
2023/10/06 00:11:40;;;;;;;8.85;4.07;;;;;;;9.32;100.00;101756.78;692988;28;1043;-64
2023/10/06 00:12:05;;;;;;;7.63;4.38;;;;;;;9.31;100.00;101755.91;693542;28;1308;-63
2023/10/06 00:12:31;;;;;;;7.53;4.30;;;;;;;9.33;100.00;101764.66;693468;28;1022;-64
2023/10/06 00:12:58;;;;;;;8.10;3.80;;;;;;;9.34;100.00;101757.69;691137;28;4419;-64
2023/10/06 00:13:22;;;;;;;7.43;4.00;;;;;;;9.32;100.00;101760.28;693189;28;968;-62
2023/10/06 00:14:00;;;;;;;9.82;4.50;;;;;;;9.32;100.00;101757.66;691508;28;2347;-63
2023/10/06 00:14:39;;;;;;;10.00;4.20;;;;;;;9.33;100.00;101755.91;693177;28;1027;-63
2023/10/06 00:14:59;;;;;;;7.93;4.22;;;;;;;9.31;100.00;101760.25;691546;28;1195;-63
2023/10/06 00:15:26;;;;;;;6.50;3.92;;;;;;;9.32;100.00;101764.63;693211;28;1269;-63
2023/10/06 00:15:49;;;;;;;8.75;3.90;;;;;;;9.31;100.00;101755.91;690392;28;4423;-62
2023/10/06 00:16:11;;;;;;;7.93;4.00;;;;;;;9.32;100.00;101767.22;693466;28;983;-63
2023/10/06 00:16:38;;;;;;;7.93;3.90;;;;;;;9.31;100.00;101760.25;692828;28;5596;-63
2023/10/06 00:16:59;;;;;;;7.05;4.20;;;;;;;9.30;100.00;101758.47;691386;28;1855;-62
2023/10/06 00:17:21;;;;;;;7.78;4.20;;;;;;;9.30;100.00;101761.97;693093;28;805;-63
2023/10/06 00:17:48;;;;;;;8.70;4.00;;;;;;;9.31;100.00;101760.25;691970;28;2331;-63
2023/10/06 00:18:16;;;;;;;7.70;3.88;;;;;;;9.32;100.00;101764.63;693547;28;876;-62
2023/10/06 00:18:37;;;;;;;6.70;4.00;;;;;;;9.32;100.00;101764.63;692997;28;983;-63
2023/10/06 00:19:06;;;;;;;7.53;3.97;;;;;;;9.33;100.00;101763.75;690718;28;4535;-64
2023/10/06 00:19:31;;;;;;;7.07;3.80;;;;;;;9.33;100.00;101763.75;693542;28;876;-62
2023/10/06 00:19:54;;;;;;;8.52;3.72;;;;;;;9.32;100.00;101762.88;691760;28;995;-63
2023/10/06 00:20:25;;;;;;;8.15;3.95;;;;;;;9.30;100.00;101763.69;693273;28;975;-63
2023/10/06 00:20:48;;;;;;;6.25;3.75;;;;;;;9.31;100.00;101762.84;691476;28;1781;-64
2023/10/06 00:21:15;;;;;;;6.55;4.00;;;;;;;9.33;100.00;101763.75;692850;28;844;-62
2023/10/06 00:21:35;;;;;;;7.13;3.80;;;;;;;9.32;100.00;101762.88;692945;28;824;-63
2023/10/06 00:22:37;;;;;;;7.60;3.88;;;;;;;9.31;100.00;101761.13;693374;28;1075;-63
2023/10/06 00:23:04;;;;;;;7.20;3.60;;;;;;;9.32;100.00;101764.63;691741;28;2148;-63
2023/10/06 00:23:30;;;;;;;8.55;3.92;;;;;;;9.30;100.00;101763.69;693478;28;916;-63
2023/10/06 00:23:52;;;;;;;7.55;3.63;;;;;;;9.28;100.00;101758.44;691336;28;2524;-63
2023/10/06 00:24:12;;;;;;;8.55;3.88;;;;;;;9.30;100.00;101768.91;692962;28;944;-63
2023/10/06 00:24:33;;;;;;;8.63;4.10;;;;;;;9.29;100.00;101761.94;693494;28;1000;-63
2023/10/06 00:24:59;;;;;;;7.63;4.03;;;;;;;9.28;100.00;101771.50;691944;28;4299;-63
2023/10/06 00:25:20;;;;;;;7.35;3.60;;;;;;;9.28;100.00;101762.81;693011;28;1038;-63
2023/10/06 00:25:43;;;;;;;6.72;3.75;;;;;;;9.30;100.00;101766.31;691370;28;809;-63
2023/10/06 00:26:08;;;;;;;8.20;4.03;;;;;;;9.26;100.00;101772.31;689599;28;1139;-63
2023/10/06 00:26:29;;;;;;;8.40;3.63;;;;;;;9.25;100.00;101766.22;688927;28;1012;-62
2023/10/06 00:26:51;;;;;;;7.53;3.70;;;;;;;9.26;100.00;101767.09;687020;28;1466;-64
2023/10/06 00:27:18;;;;;;;6.45;3.50;;;;;;;9.25;100.00;101765.34;688113;28;959;-64
2023/10/06 00:27:38;;;;;;;6.20;3.75;;;;;;;9.24;100.00;101768.81;690057;28;1299;-63
2023/10/06 00:28:00;;;;;;;7.47;3.88;;;;;;;9.25;100.00;101765.34;685343;28;7007;-63
2023/10/06 00:28:25;;;;;;;6.50;4.10;;;;;;;9.25;100.00;101770.56;686639;28;893;-63
2023/10/06 00:28:46;;;;;;;7.25;4.05;;;;;;;9.26;100.00;101772.31;687573;28;1979;-62
2023/10/06 00:29:17;;;;;;;7.57;3.73;;;;;;;9.26;100.00;101772.31;688540;28;750;-63
2023/10/06 00:29:48;;;;;;;7.65;3.70;;;;;;;9.25;100.00;101774.06;688769;28;1246;-62
2023/10/06 00:30:11;;;;;;;7.30;3.70;;;;;;;9.23;100.00;101772.28;693405;28;1717;-62
2023/10/06 00:30:31;;;;;;;7.80;3.70;;;;;;;9.23;100.00;101777.50;693079;28;1025;-63
2023/10/06 00:30:57;;;;;;;7.17;3.70;;;;;;;9.22;100.00;101778.34;691613;28;4466;-63
2023/10/06 00:31:17;;;;;;;6.97;3.83;;;;;;;9.20;100.00;101779.19;691085;28;1283;-63
2023/10/06 00:31:39;;;;;;;8.93;4.35;;;;;;;9.20;100.00;101775.69;692977;28;924;-62
2023/10/06 00:32:21;;;;;;;6.45;3.88;;;;;;;9.19;100.00;101779.16;690585;28;1897;-62
2023/10/06 00:32:42;;;;;;;6.95;3.70;;;;;;;9.21;100.00;101780.06;691102;28;1642;-63
2023/10/06 00:33:05;;;;;;;7.97;3.83;;;;;;;9.21;100.00;101777.47;691216;28;1354;-63
2023/10/06 00:33:32;;;;;;;8.32;4.07;;;;;;;9.22;100.00;101780.94;692404;28;866;-64
2023/10/06 00:33:53;;;;;;;7.70;3.55;;;;;;;9.22;100.00;101781.84;690109;28;4363;-63
2023/10/06 00:34:20;;;;;;;7.68;3.85;;;;;;;9.21;100.00;101780.06;690613;28;1593;-63
2023/10/06 00:34:42;;;;;;;8.68;3.90;;;;;;;9.21;100.00;101774.84;690550;28;1067;-62
2023/10/06 00:35:14;;;;;;;6.85;3.65;;;;;;;9.21;100.00;101782.69;690841;28;893;-62
2023/10/06 00:35:35;;;;;;;6.22;3.40;;;;;;;9.19;100.00;101772.22;691275;28;848;-62
2023/10/06 00:35:56;;;;;;;6.80;3.53;;;;;;;9.18;100.00;101777.41;689369;28;1808;-62
2023/10/06 00:36:17;;;;;;;7.25;3.85;;;;;;;9.20;100.00;101773.09;691969;28;1012;-63
2023/10/06 00:36:41;;;;;;;7.73;3.60;;;;;;;9.19;100.00;101777.44;689909;28;774;-63
2023/10/06 00:37:02;;;;;;;7.50;3.67;;;;;;;9.18;100.00;101770.47;689651;28;5737;-63
2023/10/06 00:37:23;;;;;;;6.75;3.58;;;;;;;9.18;100.00;101770.47;691531;28;863;-63
2023/10/06 00:37:46;;;;;;;7.60;3.87;;;;;;;9.19;100.00;101773.94;689644;28;1914;-62
2023/10/06 00:38:16;;;;;;;6.75;3.97;;;;;;;9.17;100.00;101771.28;691824;28;1420;-63
2023/10/06 00:38:37;;;;;;;6.57;3.58;;;;;;;9.18;100.00;101770.47;691809;28;972;-63
2023/10/06 00:38:58;;;;;;;6.18;3.75;;;;;;;9.19;100.00;101767.00;689960;28;6005;-62
2023/10/06 00:39:22;;;;;;;6.10;3.90;;;;;;;9.19;100.00;101767.00;688755;28;1059;-63
2023/10/06 00:39:43;;;;;;;6.32;3.70;;;;;;;9.22;100.00;101767.91;685515;28;4959;-63
2023/10/06 00:40:26;;;;;;;5.90;3.40;;;;;;;9.19;100.00;101769.63;686711;28;913;-63
2023/10/06 00:40:51;;;;;;;7.68;3.63;;;;;;;9.18;100.00;101769.59;684624;28;1785;-63
2023/10/06 00:41:14;;;;;;;7.43;3.50;;;;;;;9.18;100.00;101765.25;690759;28;1000;-62
2023/10/06 00:41:35;;;;;;;7.72;3.60;;;;;;;9.18;100.00;101772.19;693413;28;988;-63
2023/10/06 00:41:56;;;;;;;8.20;3.50;;;;;;;9.16;100.00;101772.13;687204;28;1397;-62
2023/10/06 00:42:20;;;;;;;7.20;3.72;;;;;;;9.14;100.00;101767.78;688227;28;877;-62
2023/10/06 00:42:41;;;;;;;6.38;3.30;;;;;;;9.13;100.00;101764.25;686043;28;964;-63
2023/10/06 00:43:07;;;;;;;7.28;3.60;;;;;;;9.14;100.00;101767.78;684941;28;6684;-63
2023/10/06 00:43:34;;;;;;;6.88;3.70;;;;;;;9.14;100.00;101765.16;686874;28;1063;-64
2023/10/06 00:43:56;;;;;;;7.72;3.58;;;;;;;9.14;100.00;101765.16;684502;28;2507;-64
2023/10/06 00:44:21;;;;;;;6.97;3.55;;;;;;;9.14;100.00;101765.16;687618;28;1019;-62
2023/10/06 00:44:45;;;;;;;8.10;3.63;;;;;;;9.13;100.00;101766.00;687696;28;1357;-63
2023/10/06 00:45:08;;;;;;;9.15;4.00;;;;;;;9.11;100.00;101759.84;689759;28;996;-63
2023/10/06 00:45:30;;;;;;;7.57;3.92;;;;;;;9.13;100.00;101763.41;690012;28;860;-62
2023/10/06 00:45:50;;;;;;;7.55;3.70;;;;;;;9.22;100.00;101762.69;686583;28;4562;-62
2023/10/06 00:46:12;;;;;;;8.27;3.83;;;;;;;9.23;100.00;101767.06;685735;28;872;-62
2023/10/06 00:46:33;;;;;;;7.20;3.80;;;;;;;9.20;100.00;101760.91;685998;28;1328;-64
2023/10/06 00:46:58;;;;;;;8.40;3.70;;;;;;;9.19;100.00;101759.19;685497;28;2585;-63
2023/10/06 00:47:20;;;;;;;6.78;3.55;;;;;;;9.19;100.00;101767.00;685099;28;890;-63
2023/10/06 00:47:41;;;;;;;9.40;3.78;;;;;;;9.19;100.00;101766.09;688925;28;932;-63
2023/10/06 00:48:08;;;;;;;7.40;3.42;;;;;;;9.18;100.00;101767.84;689919;28;1811;-63
2023/10/06 00:48:29;;;;;;;6.93;3.55;;;;;;;9.16;100.00;101766.06;690025;28;1301;-62
2023/10/06 00:48:53;;;;;;;6.50;3.65;;;;;;;9.15;100.00;101770.41;688154;28;4359;-63
2023/10/06 00:49:14;;;;;;;7.35;3.88;;;;;;;9.14;100.00;101773.00;689628;28;980;-63
2023/10/06 00:49:35;;;;;;;7.25;4.03;;;;;;;9.13;100.00;101766.88;690521;28;2053;-63
2023/10/06 00:49:59;;;;;;;7.20;3.80;;;;;;;9.12;100.00;101767.72;689316;28;1770;-64
2023/10/06 00:50:24;;;;;;;7.55;3.78;;;;;;;9.11;100.00;101763.38;690038;28;901;-63
2023/10/06 00:50:44;;;;;;;6.90;3.90;;;;;;;9.11;100.00;101765.97;691552;28;1830;-63
2023/10/06 00:51:22;;;;;;;7.15;3.80;;;;;;;9.11;100.00;101765.06;688501;28;857;-63
2023/10/06 00:51:42;;;;;;;7.15;3.80;;;;;;;9.09;100.00;101765.06;687794;28;4489;-63
2023/10/06 00:52:06;;;;;;;6.85;3.70;;;;;;;9.09;100.00;101764.19;683831;28;2648;-63
2023/10/06 00:52:27;;;;;;;6.75;3.67;;;;;;;9.09;100.00;101764.19;684629;28;1328;-63
2023/10/06 00:52:47;;;;;;;7.10;3.90;;;;;;;9.09;100.00;101762.44;683270;28;1734;-63
2023/10/06 00:53:10;;;;;;;7.55;3.65;;;;;;;9.09;100.00;101765.06;687150;28;1044;-63
2023/10/06 00:53:33;;;;;;;6.20;3.70;;;;;;;9.08;100.00;101763.28;686330;28;892;-63
2023/10/06 00:53:56;;;;;;;6.55;3.53;;;;;;;9.08;100.00;101763.28;687155;28;2228;-63
2023/10/06 00:54:19;;;;;;;7.40;3.50;;;;;;;9.08;100.00;101757.19;691593;28;1990;-63
2023/10/06 00:54:43;;;;;;;8.77;3.60;;;;;;;9.09;100.00;101765.06;692486;28;1407;-62
2023/10/06 00:55:05;;;;;;;6.53;3.47;;;;;;;9.09;100.00;101762.44;687132;28;5967;-63
2023/10/06 00:55:30;;;;;;;7.65;3.70;;;;;;;9.10;100.00;101764.22;689382;28;1709;-64
2023/10/06 00:55:50;;;;;;;5.75;3.50;;;;;;;9.09;100.00;101767.66;687195;28;2136;-63
2023/10/06 00:56:15;;;;;;;7.18;3.65;;;;;;;9.08;100.00;101765.91;688245;28;1437;-62
2023/10/06 00:56:35;;;;;;;6.95;3.80;;;;;;;9.09;100.00;101767.66;689261;28;1445;-63
2023/10/06 00:56:57;;;;;;;7.43;3.90;;;;;;;9.09;100.00;101764.19;687125;28;1714;-62
2023/10/06 00:57:18;;;;;;;8.00;3.72;;;;;;;9.08;100.00;101760.69;686668;28;1243;-62
2023/10/06 00:57:40;;;;;;;7.40;3.70;;;;;;;9.09;100.00;101767.66;687847;28;1976;-63
2023/10/06 00:58:01;;;;;;;6.57;3.83;;;;;;;9.08;100.00;101763.28;687433;28;4569;-62
2023/10/06 00:58:22;;;;;;;6.53;3.72;;;;;;;9.11;100.00;101758.16;690206;28;1012;-65
2023/10/06 00:58:43;;;;;;;7.47;3.78;;;;;;;9.11;100.00;101760.75;689052;28;932;-63
2023/10/06 00:59:04;;;;;;;7.80;3.67;;;;;;;9.12;100.00;101761.63;686675;28;2237;-62
2023/10/06 00:59:24;;;;;;;6.43;3.60;;;;;;;9.12;100.00;101754.66;688493;28;1452;-63
2023/10/06 00:59:45;;;;;;;6.72;3.40;;;;;;;9.11;100.00;101765.06;688229;28;1997;-63
2023/10/06 01:00:16;;;;;;;6.37;3.27;;;;;;;9.11;100.00;101757.25;690357;28;1039;-63
2023/10/06 01:00:38;;;;;;;6.72;3.30;;;;;;;9.11;100.00;101757.25;688677;28;833;-63
2023/10/06 01:00:58;;;;;;;6.82;3.50;;;;;;;9.10;100.00;101756.38;690240;28;4974;-63
2023/10/06 01:01:19;;;;;;;7.05;3.85;;;;;;;9.08;100.00;101758.06;685944;28;948;-63
2023/10/06 01:01:40;;;;;;;6.20;3.83;;;;;;;9.06;100.00;101756.31;683961;28;1486;-63
2023/10/06 01:02:01;;;;;;;6.60;3.60;;;;;;;9.06;100.00;101757.19;682868;28;2457;-63
2023/10/06 01:02:23;;;;;;;5.93;3.40;;;;;;;9.05;100.00;101755.41;683570;28;1553;-63
2023/10/06 01:02:44;;;;;;;6.80;3.80;;;;;;;9.03;100.00;101759.72;683881;28;918;-62
2023/10/06 01:03:14;;;;;;;7.88;3.80;;;;;;;9.02;100.00;101757.97;683881;28;814;-63
2023/10/06 01:03:38;;;;;;;6.72;3.53;;;;;;;9.04;100.00;101756.25;692140;28;1174;-64
2023/10/06 01:04:06;;;;;;;7.53;3.70;;;;;;;9.04;100.00;101756.25;687703;28;4410;-63
2023/10/06 01:04:26;;;;;;;8.05;3.83;;;;;;;9.05;100.00;101751.94;689025;28;902;-63
2023/10/06 01:04:52;;;;;;;7.00;3.80;;;;;;;9.05;100.00;101762.38;687982;28;2238;-63
2023/10/06 01:05:16;;;;;;;8.13;4.10;;;;;;;9.01;100.00;101750.97;689249;28;1299;-63
2023/10/06 01:05:38;;;;;;;7.47;3.75;;;;;;;8.98;100.00;101753.53;689476;28;834;-63
2023/10/06 01:06:05;;;;;;;7.65;3.85;;;;;;;8.97;100.00;101754.38;688033;28;1980;-64
2023/10/06 01:06:33;;;;;;;7.35;3.60;;;;;;;8.97;100.00;101752.69;688329;28;968;-63
2023/10/06 01:06:54;;;;;;;7.30;3.58;;;;;;;9.01;100.00;101757.09;689722;28;4334;-63
2023/10/06 01:07:16;;;;;;;7.03;3.70;;;;;;;9.03;100.00;101754.53;689982;28;999;-63
2023/10/06 01:07:38;;;;;;;6.82;3.40;;;;;;;9.04;100.00;101761.47;692929;28;1380;-63
2023/10/06 01:07:58;;;;;;;5.63;3.58;;;;;;;9.05;100.00;101752.81;691441;28;2073;-63
2023/10/06 01:08:20;;;;;;;6.68;3.90;;;;;;;9.06;100.00;101751.97;690488;28;880;-63
2023/10/06 01:08:52;;;;;;;6.28;3.67;;;;;;;9.07;100.00;101751.13;689414;28;1123;-63
2023/10/06 01:09:16;;;;;;;7.18;3.83;;;;;;;9.06;100.00;101758.91;686551;28;988;-63
2023/10/06 01:09:39;;;;;;;6.38;3.60;;;;;;;9.05;100.00;101757.16;687729;28;913;-63
2023/10/06 01:10:07;;;;;;;8.15;3.50;;;;;;;9.02;100.00;101750.16;684752;28;4474;-63
2023/10/06 01:10:34;;;;;;;7.22;3.55;;;;;;;9.02;100.00;101747.53;686104;28;932;-61
2023/10/06 01:11:11;;;;;;;7.78;3.47;;;;;;;9.05;100.00;101750.19;685830;28;1722;-61
2023/10/06 01:11:55;;;;;;;6.57;3.40;;;;;;;9.05;100.00;101747.59;686854;28;1358;-62
2023/10/06 01:12:19;;;;;;;6.32;3.60;;;;;;;9.08;100.00;101752.84;690283;28;946;-64
2023/10/06 01:12:39;;;;;;;7.13;3.70;;;;;;;9.09;100.00;101746.78;689577;28;5185;-62
2023/10/06 01:13:11;;;;;;;5.93;3.50;;;;;;;9.10;100.00;101745.94;688046;28;4350;-62
2023/10/06 01:13:31;;;;;;;7.43;3.47;;;;;;;9.10;100.00;101745.09;689439;28;1024;-63
2023/10/06 01:13:57;;;;;;;7.43;3.58;;;;;;;9.10;100.00;101743.34;689103;28;2442;-62
2023/10/06 01:14:23;;;;;;;7.25;3.80;;;;;;;9.09;100.00;101740.72;688069;28;881;-63
2023/10/06 01:14:43;;;;;;;6.35;3.58;;;;;;;9.08;100.00;101742.41;693234;28;904;-63
2023/10/06 01:15:17;;;;;;;6.57;3.58;;;;;;;9.08;100.00;101752.84;691938;28;1683;-62
2023/10/06 01:15:45;;;;;;;5.72;3.30;;;;;;;9.05;100.00;101744.97;691848;28;971;-63
2023/10/06 01:16:11;;;;;;;6.47;3.78;;;;;;;9.04;100.00;101748.44;692562;28;4802;-62
2023/10/06 01:16:35;;;;;;;6.50;3.40;;;;;;;9.04;100.00;101740.59;693272;28;905;-64
2023/10/06 01:17:07;;;;;;;5.93;3.25;;;;;;;9.05;100.00;101742.38;691678;28;2717;-63
2023/10/06 01:17:28;;;;;;;7.10;3.80;;;;;;;9.02;100.00;101742.31;692713;28;1000;-62
2023/10/06 01:17:49;;;;;;;7.30;3.80;;;;;;;9.02;100.00;101742.31;691834;28;2380;-63
2023/10/06 01:18:19;;;;;;;7.28;3.55;;;;;;;9.04;100.00;101735.38;693271;28;853;-63
2023/10/06 01:18:41;;;;;;;6.95;3.58;;;;;;;9.07;100.00;101742.41;692783;28;944;-62
2023/10/06 01:19:14;;;;;;;6.97;3.50;;;;;;;9.06;100.00;101740.66;691323;28;4319;-62
2023/10/06 01:19:34;;;;;;;6.85;3.50;;;;;;;9.07;100.00;101745.00;691187;28;1317;-62
2023/10/06 01:19:59;;;;;;;7.23;3.63;;;;;;;9.05;100.00;101741.50;687958;28;1127;-62
2023/10/06 01:21:17;;;;;;;6.80;3.40;;;;;;;9.06;100.00;101738.06;678979;29;929;-62
2023/10/06 01:21:40;;;;;;;6.57;3.55;;;;;;;9.06;100.00;101733.69;686024;28;1509;-62
2023/10/06 01:22:44;;;;;;;5.93;3.30;;;;;;;8.99;100.00;101731.84;691635;28;973;-62
2023/10/06 01:23:17;;;;;;;5.95;3.45;;;;;;;9.00;100.00;101733.59;691618;28;1997;-62
2023/10/06 01:23:38;;;;;;;8.35;3.85;;;;;;;8.99;100.00;101731.84;689812;28;884;-62
2023/10/06 01:24:00;;;;;;;7.13;3.90;;;;;;;8.99;100.00;101737.91;688655;28;1726;-62
2023/10/06 01:24:25;;;;;;;6.47;3.47;;;;;;;8.99;100.00;101734.44;690283;28;1007;-62
2023/10/06 01:24:46;;;;;;;6.05;3.22;;;;;;;9.03;100.00;101737.13;690147;28;4380;-63
2023/10/06 01:25:13;;;;;;;6.97;3.50;;;;;;;9.05;100.00;101738.91;690175;28;815;-62
2023/10/06 01:25:34;;;;;;;7.95;3.90;;;;;;;9.04;100.00;101738.00;691606;28;880;-63
2023/10/06 01:25:59;;;;;;;7.80;3.45;;;;;;;9.02;100.00;101737.09;692102;28;2153;-64
2023/10/06 01:26:24;;;;;;;7.72;3.80;;;;;;;9.01;100.00;101736.25;693024;28;908;-63
2023/10/06 01:26:44;;;;;;;7.05;3.70;;;;;;;9.04;100.00;101735.38;689992;28;1483;-64
2023/10/06 01:27:07;;;;;;;7.32;3.67;;;;;;;9.04;100.00;101735.38;686148;28;1670;-63
2023/10/06 01:27:28;;;;;;;7.03;3.65;;;;;;;9.02;100.00;101731.88;687513;28;802;-62
2023/10/06 01:27:50;;;;;;;6.38;3.60;;;;;;;9.05;100.00;101733.69;685394;28;5383;-62
2023/10/06 01:28:13;;;;;;;6.45;3.50;;;;;;;9.03;100.00;101734.53;686580;28;944;-62
2023/10/06 01:28:34;;;;;;;6.70;3.33;;;;;;;9.05;100.00;101729.31;687784;28;924;-62
2023/10/06 01:28:57;;;;;;;6.68;3.60;;;;;;;9.05;100.00;101731.94;687812;28;1807;-63
2023/10/06 01:29:22;;;;;;;7.78;3.60;;;;;;;9.05;100.00;101726.72;687333;28;1354;-63
2023/10/06 01:29:42;;;;;;;7.30;3.55;;;;;;;9.06;100.00;101727.63;687422;28;1277;-62
2023/10/06 01:30:35;;;;;;;6.40;3.47;;;;;;;9.05;100.00;101726.72;687909;28;912;-62
2023/10/06 01:30:57;;;;;;;6.13;3.60;;;;;;;9.04;100.00;101730.16;685619;28;4367;-63
2023/10/06 01:31:21;;;;;;;6.95;3.42;;;;;;;9.05;100.00;101725.84;689136;28;1198;-64
2023/10/06 01:31:44;;;;;;;6.70;3.20;;;;;;;9.02;100.00;101730.16;693186;28;995;-63
2023/10/06 01:32:05;;;;;;;6.85;3.22;;;;;;;9.03;100.00;101728.44;691604;28;1132;-63
2023/10/06 01:32:26;;;;;;;7.55;3.80;;;;;;;9.00;100.00;101724.03;692887;28;972;-63
2023/10/06 01:32:50;;;;;;;6.78;3.40;;;;;;;9.01;100.00;101725.81;689158;28;2433;-63
2023/10/06 01:33:11;;;;;;;5.65;3.22;;;;;;;9.03;100.00;101728.44;690008;28;1473;-62
2023/10/06 01:33:31;;;;;;;5.50;3.43;;;;;;;9.01;100.00;101725.81;688790;28;1407;-63
2023/10/06 01:33:51;;;;;;;6.25;3.47;;;;;;;9.01;100.00;101731.03;687206;28;4363;-63
2023/10/06 01:34:12;;;;;;;6.50;3.43;;;;;;;8.98;100.00;101720.50;686427;28;1291;-63
2023/10/06 01:34:34;;;;;;;6.72;3.55;;;;;;;8.97;100.00;101724.00;686445;28;897;-63
2023/10/06 01:34:55;;;;;;;7.15;3.40;;;;;;;8.96;100.00;101719.63;689770;28;1747;-63
2023/10/06 01:35:16;;;;;;;7.10;3.45;;;;;;;8.97;100.00;101728.31;689059;28;773;-63
2023/10/06 01:35:42;;;;;;;6.88;3.55;;;;;;;8.97;100.00;101724.00;688126;28;964;-63
2023/10/06 01:36:04;;;;;;;6.55;3.38;;;;;;;8.97;100.00;101721.38;688790;28;2285;-63
2023/10/06 01:36:25;;;;;;;6.93;3.65;;;;;;;8.98;100.00;101730.06;690920;28;1162;-64
2023/10/06 01:36:54;;;;;;;7.27;3.63;;;;;;;8.95;100.00;101725.66;689719;28;4510;-63
2023/10/06 01:37:16;;;;;;;7.03;3.80;;;;;;;8.96;100.00;101723.97;690584;28;968;-63
2023/10/06 01:37:36;;;;;;;7.10;3.75;;;;;;;8.95;100.00;101724.81;690281;28;964;-63
2023/10/06 01:37:58;;;;;;;7.57;3.70;;;;;;;8.95;100.00;101730.03;688852;28;1979;-63
2023/10/06 01:38:26;;;;;;;6.57;3.47;;;;;;;8.94;100.00;101723.91;690027;28;1130;-63
2023/10/06 01:38:46;;;;;;;7.25;3.35;;;;;;;8.96;100.00;101721.34;691717;28;5854;-64
2023/10/06 01:39:16;;;;;;;7.28;3.47;;;;;;;8.96;100.00;101723.97;692895;28;757;-63
2023/10/06 01:39:38;;;;;;;7.65;3.70;;;;;;;8.94;100.00;101721.28;693441;28;957;-63
2023/10/06 01:40:07;;;;;;;6.75;3.67;;;;;;;8.96;100.00;101723.97;691320;28;4508;-63
2023/10/06 01:40:53;;;;;;;6.47;3.60;;;;;;;8.97;100.00;101717.88;685880;28;2394;-63
2023/10/06 01:41:14;;;;;;;6.85;3.45;;;;;;;8.98;100.00;101719.63;684629;28;1624;-63
2023/10/06 01:41:34;;;;;;;6.22;3.50;;;;;;;8.97;100.00;101718.78;685082;28;1313;-62
2023/10/06 01:41:55;;;;;;;6.45;3.58;;;;;;;8.97;100.00;101715.25;679904;28;1882;-63
2023/10/06 01:42:24;;;;;;;6.28;3.38;;;;;;;8.96;100.00;101716.13;683735;28;945;-63
2023/10/06 01:42:45;;;;;;;6.28;3.47;;;;;;;8.95;100.00;101719.59;686620;28;4647;-63
2023/10/06 01:43:09;;;;;;;5.97;3.70;;;;;;;8.94;100.00;101723.03;687785;28;2291;-63
2023/10/06 01:43:30;;;;;;;6.63;3.33;;;;;;;8.94;100.00;101720.44;690149;28;935;-63
2023/10/06 01:43:51;;;;;;;7.32;3.38;;;;;;;8.93;100.00;101722.16;690664;28;1761;-63
2023/10/06 01:44:12;;;;;;;7.97;3.70;;;;;;;8.93;100.00;101716.06;692931;28;931;-64
2023/10/06 01:44:35;;;;;;;7.13;3.33;;;;;;;8.92;100.00;101714.31;692782;28;801;-63
2023/10/06 01:45:13;;;;;;;8.10;3.45;;;;;;;8.92;100.00;101719.53;687416;28;2406;-63
2023/10/06 01:45:35;;;;;;;7.03;3.90;;;;;;;8.97;100.00;101715.25;685755;28;1497;-63
2023/10/06 01:45:55;;;;;;;8.35;3.95;;;;;;;9.05;100.00;101721.50;683845;28;4459;-64
2023/10/06 01:46:16;;;;;;;8.30;3.80;;;;;;;9.05;100.00;101720.63;685783;28;1623;-63
2023/10/06 01:46:39;;;;;;;8.05;3.47;;;;;;;9.05;100.00;101715.41;686897;28;1012;-62
2023/10/06 01:47:04;;;;;;;6.47;3.47;;;;;;;9.02;100.00;101716.22;685858;28;1629;-63
2023/10/06 01:47:29;;;;;;;5.75;3.20;;;;;;;9.02;100.00;101711.03;688280;28;916;-63
2023/10/06 01:48:01;;;;;;;8.75;3.38;;;;;;;9.03;100.00;101716.25;687851;28;2277;-62
2023/10/06 01:48:41;;;;;;;6.67;3.27;;;;;;;8.98;100.00;101715.28;689457;28;1536;-62
2023/10/06 01:49:02;;;;;;;6.85;3.35;;;;;;;8.98;100.00;101717.03;690767;28;4527;-63
2023/10/06 01:49:23;;;;;;;7.72;3.50;;;;;;;8.98;100.00;101722.25;693172;28;880;-62
2023/10/06 01:49:44;;;;;;;7.90;3.58;;;;;;;8.96;100.00;101717.00;693617;28;873;-63
2023/10/06 01:50:05;;;;;;;7.53;3.50;;;;;;;8.96;100.00;101710.91;691956;28;2162;-63
2023/10/06 01:50:28;;;;;;;6.22;3.20;;;;;;;8.95;100.00;101717.84;692606;28;888;-62
2023/10/06 01:50:49;;;;;;;7.25;3.45;;;;;;;8.96;100.00;101716.13;691662;28;2387;-63
2023/10/06 01:51:14;;;;;;;6.03;3.35;;;;;;;8.96;100.00;101710.91;692502;28;911;-63
2023/10/06 01:51:35;;;;;;;6.72;3.40;;;;;;;8.97;100.00;101710.03;692118;28;951;-63
2023/10/06 01:52:02;;;;;;;6.60;3.40;;;;;;;8.98;100.00;101704.00;689945;28;4373;-63
2023/10/06 01:52:22;;;;;;;8.15;3.78;;;;;;;8.98;100.00;101704.00;690728;28;924;-63
2023/10/06 01:52:42;;;;;;;7.47;3.35;;;;;;;8.98;100.00;101704.84;689059;28;827;-62
2023/10/06 01:53:06;;;;;;;6.33;3.40;;;;;;;8.98;100.00;101702.25;688315;28;1691;-63
2023/10/06 01:53:32;;;;;;;7.95;3.90;;;;;;;8.99;100.00;101704.00;689356;28;1217;-62
2023/10/06 01:53:53;;;;;;;7.57;3.78;;;;;;;9.01;100.00;101704.03;691340;28;1794;-62
2023/10/06 01:54:13;;;;;;;8.10;3.50;;;;;;;9.01;100.00;101706.66;689607;28;885;-63
2023/10/06 01:54:34;;;;;;;6.63;3.15;;;;;;;9.00;100.00;101699.69;687394;28;1328;-62
2023/10/06 01:55:03;;;;;;;6.90;3.40;;;;;;;9.01;100.00;101704.03;683662;28;4642;-62
2023/10/06 01:55:24;;;;;;;6.28;3.30;;;;;;;9.03;100.00;101702.34;686380;28;1642;-63
2023/10/06 01:55:51;;;;;;;6.90;3.35;;;;;;;9.05;100.00;101705.84;685717;28;802;-63
2023/10/06 01:56:14;;;;;;;7.50;3.42;;;;;;;9.05;100.00;101703.25;689750;28;822;-63
2023/10/06 01:56:37;;;;;;;6.20;3.38;;;;;;;9.04;100.00;101704.09;686059;28;1326;-62
2023/10/06 01:56:57;;;;;;;9.52;4.50;;;;;;;9.01;100.00;101698.81;687982;28;1450;-63
2023/10/06 01:57:18;;;;;;;10.00;4.60;;;;;;;9.02;100.00;101698.84;687344;28;1137;-63
2023/10/06 01:57:39;;;;;;;6.63;3.30;;;;;;;9.05;100.00;101697.16;683581;28;1915;-62
2023/10/06 01:58:02;;;;;;;5.72;3.50;;;;;;;9.06;100.00;101696.31;681310;28;4433;-63